Time;durP1;ratioP1;P1;durP2;ratioP2;P2;SDS_P1;SDS_P2;PMS_P1;PMS_P2;Temp;Humidity;BMP_temperature;BMP_pressure;BME280_temperature;BME280_humidity;BME280_pressure;Samples;Min_cycle;Max_cycle;Signal;HPM_P1;HPM_P2
2023/06/18 00:00:35;;;;;;;0.25;0.25;;;17.70;78.00;;;;;;5047342;28;20055;-66
2023/06/18 00:03:01;;;;;;;0.00;0.00;;;17.70;77.60;;;;;;5030072;28;20625;-66
2023/06/18 00:05:26;;;;;;;0.08;0.08;;;17.60;77.80;;;;;;5018955;28;20044;-66
2023/06/18 00:07:52;;;;;;;0.00;0.00;;;17.70;77.60;;;;;;5045734;28;20034;-66
2023/06/18 00:10:17;;;;;;;0.15;0.15;;;17.60;78.00;;;;;;5048504;28;20055;-66
2023/06/18 00:12:43;;;;;;;0.00;0.00;;;17.60;77.60;;;;;;5048286;28;20068;-65
2023/06/18 00:15:09;;;;;;;0.00;0.00;;;17.60;77.70;;;;;;5036493;28;20077;-66
2023/06/18 00:17:35;;;;;;;0.00;0.00;;;17.60;77.30;;;;;;5028988;28;20111;-66
2023/06/18 00:20:01;;;;;;;0.00;0.00;;;17.60;77.40;;;;;;5028954;28;20037;-66
2023/06/18 00:22:26;;;;;;;0.00;0.00;;;17.60;78.10;;;;;;5028909;28;20041;-65
2023/06/18 00:24:52;;;;;;;0.00;0.00;;;17.60;78.20;;;;;;5028591;28;20457;-66
2023/06/18 00:27:20;;;;;;;0.32;0.15;;;17.60;78.40;;;;;;5040889;28;20048;-66
2023/06/18 00:29:47;;;;;;;0.00;0.00;;;17.60;78.70;;;;;;5048610;28;20045;-66
2023/06/18 00:32:14;;;;;;;0.00;0.00;;;17.50;78.40;;;;;;5048798;28;20084;-66
2023/06/18 00:34:41;;;;;;;0.00;0.00;;;17.60;78.20;;;;;;5048690;28;20041;-66
2023/06/18 00:37:09;;;;;;;0.00;0.00;;;17.50;78.10;;;;;;5048451;28;20076;-66
2023/06/18 00:39:36;;;;;;;0.20;0.20;;;17.50;78.70;;;;;;5048379;28;20075;-66
2023/06/18 00:42:02;;;;;;;0.00;0.00;;;17.50;78.00;;;;;;5063943;28;20478;-66
2023/06/18 00:44:28;;;;;;;0.08;0.08;;;17.50;78.90;;;;;;5048312;28;20088;-66
2023/06/18 00:46:56;;;;;;;0.00;0.00;;;17.50;78.40;;;;;;5050610;28;20060;-66
2023/06/18 00:49:22;;;;;;;0.03;0.03;;;17.40;78.40;;;;;;5052306;28;20048;-66
2023/06/18 00:51:48;;;;;;;0.20;0.20;;;17.30;78.00;;;;;;5052081;28;20052;-65
2023/06/18 00:54:15;;;;;;;0.15;0.15;;;17.30;78.10;;;;;;5052617;28;20772;-65
2023/06/18 00:56:50;;;;;;;0.00;0.00;;;17.30;78.40;;;;;;5051884;28;20127;-66
2023/06/18 00:59:22;;;;;;;0.13;0.13;;;17.30;78.70;;;;;;5051657;28;20049;-66
2023/06/18 01:01:51;;;;;;;0.00;0.00;;;17.30;78.70;;;;;;5051908;28;20067;-65
2023/06/18 01:04:17;;;;;;;0.30;0.30;;;17.20;78.50;;;;;;5035914;28;20500;-65
2023/06/18 01:06:42;;;;;;;0.00;0.00;;;17.20;78.40;;;;;;5044983;28;20056;-66
2023/06/18 01:09:09;;;;;;;0.73;0.57;;;17.20;78.80;;;;;;5047831;28;20060;-66
2023/06/18 01:11:40;;;;;;;0.00;0.00;;;17.10;79.20;;;;;;5050312;28;20045;-66
2023/06/18 01:14:09;;;;;;;0.00;0.00;;;17.20;79.40;;;;;;5051115;28;20112;-66
2023/06/18 01:16:37;;;;;;;0.00;0.00;;;17.20;79.30;;;;;;5050545;28;20291;-66
2023/06/18 01:19:04;;;;;;;0.00;0.00;;;17.20;79.40;;;;;;5050138;28;20037;-66
2023/06/18 01:21:34;;;;;;;0.65;0.57;;;17.20;78.80;;;;;;5048012;28;20045;-66
2023/06/18 01:24:12;;;;;;;0.00;0.00;;;17.10;79.10;;;;;;5032535;28;20041;-66
2023/06/18 01:26:41;;;;;;;0.00;0.00;;;17.10;79.20;;;;;;5050096;28;20045;-66
2023/06/18 01:29:09;;;;;;;0.00;0.00;;;17.10;79.00;;;;;;5048386;28;20448;-66
2023/06/18 01:31:36;;;;;;;0.00;0.00;;;17.10;79.40;;;;;;5049804;28;20122;-66
2023/06/18 01:34:04;;;;;;;0.00;0.00;;;17.10;79.70;;;;;;5050323;28;20045;-66
2023/06/18 01:36:37;;;;;;;0.00;0.00;;;17.10;79.90;;;;;;5029736;28;20083;-65
2023/06/18 01:39:23;;;;;;;0.00;0.00;;;17.00;80.00;;;;;;5049561;28;20049;-66
2023/06/18 01:41:53;;;;;;;0.00;0.00;;;17.10;80.00;;;;;;5050181;28;20052;-66
2023/06/18 01:44:21;;;;;;;0.00;0.00;;;17.10;79.80;;;;;;5048529;28;20371;-66
2023/06/18 01:46:51;;;;;;;0.00;0.00;;;17.00;79.50;;;;;;5050825;28;20041;-65
2023/06/18 01:49:18;;;;;;;0.00;0.00;;;17.00;79.20;;;;;;5031649;28;20052;-66
2023/06/18 01:51:44;;;;;;;0.00;0.00;;;17.00;79.50;;;;;;5049892;28;20140;-66
2023/06/18 01:54:10;;;;;;;0.00;0.00;;;16.90;79.90;;;;;;5031928;28;20523;-66
2023/06/18 01:56:36;;;;;;;0.03;0.03;;;16.90;79.60;;;;;;5049392;28;20076;-66
2023/06/18 01:59:03;;;;;;;0.00;0.00;;;16.90;79.50;;;;;;5048762;28;20045;-66
2023/06/18 02:01:30;;;;;;;0.00;0.00;;;16.90;79.60;;;;;;5049234;28;20135;-66
2023/06/18 02:03:56;;;;;;;0.00;0.00;;;16.90;79.80;;;;;;5049746;28;20048;-67
2023/06/18 02:06:22;;;;;;;0.70;0.38;;;16.90;79.40;;;;;;5049834;28;20095;-66
2023/06/18 02:08:47;;;;;;;0.00;0.00;;;16.90;79.40;;;;;;5031401;28;20053;-67
2023/06/18 02:11:13;;;;;;;0.00;0.00;;;16.80;80.20;;;;;;5049738;28;20041;-66
2023/06/18 02:13:39;;;;;;;0.00;0.00;;;16.80;80.20;;;;;;5048575;28;20041;-66
2023/06/18 02:16:04;;;;;;;0.00;0.00;;;16.80;80.00;;;;;;5049732;28;20049;-67
2023/06/18 02:18:30;;;;;;;0.00;0.00;;;16.80;80.00;;;;;;5050677;28;20041;-65
2023/06/18 02:20:55;;;;;;;0.00;0.00;;;16.90;80.30;;;;;;5045414;28;20782;-66
2023/06/18 02:23:22;;;;;;;0.22;0.17;;;16.90;80.40;;;;;;5030508;28;20045;-65
2023/06/18 02:25:47;;;;;;;0.00;0.00;;;16.90;80.60;;;;;;5031383;28;20052;-65
2023/06/18 02:28:13;;;;;;;0.00;0.00;;;16.90;80.30;;;;;;5030110;28;20045;-66
2023/06/18 02:30:39;;;;;;;0.00;0.00;;;16.90;80.60;;;;;;5012379;28;20080;-65
2023/06/18 02:33:06;;;;;;;0.57;0.40;;;16.90;80.60;;;;;;5034818;28;20069;-66
2023/06/18 02:35:32;;;;;;;0.00;0.00;;;16.80;80.10;;;;;;5050121;28;20045;-65
2023/06/18 02:37:58;;;;;;;0.00;0.00;;;16.80;80.20;;;;;;5050035;28;20047;-66
2023/06/18 02:40:23;;;;;;;0.00;0.00;;;16.80;80.20;;;;;;5031904;28;20053;-66
2023/06/18 02:42:50;;;;;;;0.00;0.00;;;16.90;80.20;;;;;;5049665;28;20045;-66
2023/06/18 02:45:21;;;;;;;0.17;0.15;;;16.90;80.30;;;;;;5049997;28;20352;-65
2023/06/18 02:47:48;;;;;;;0.00;0.00;;;16.80;79.90;;;;;;5049539;28;20041;-66
2023/06/18 02:50:15;;;;;;;0.00;0.00;;;16.80;80.10;;;;;;5049817;28;20072;-66
2023/06/18 02:52:41;;;;;;;0.00;0.00;;;16.80;80.90;;;;;;5049610;28;20563;-66
2023/06/18 02:55:07;;;;;;;0.00;0.00;;;16.80;81.10;;;;;;5049614;28;20045;-66
2023/06/18 02:57:34;;;;;;;0.00;0.00;;;16.90;81.10;;;;;;5046765;28;20131;-67
2023/06/18 03:00:00;;;;;;;0.00;0.00;;;16.90;80.70;;;;;;5012266;28;20443;-66
2023/06/18 03:02:26;;;;;;;0.00;0.00;;;16.90;80.90;;;;;;5029879;28;20041;-66
2023/06/18 03:04:52;;;;;;;0.00;0.00;;;16.80;80.60;;;;;;5029751;28;20110;-66
2023/06/18 03:07:18;;;;;;;0.00;0.00;;;16.80;80.70;;;;;;5030118;28;20053;-66
2023/06/18 03:09:44;;;;;;;0.00;0.00;;;16.80;81.00;;;;;;5017546;28;20037;-66
2023/06/18 03:12:11;;;;;;;0.00;0.00;;;16.80;80.90;;;;;;5049522;28;20118;-66
2023/06/18 03:14:37;;;;;;;0.00;0.00;;;16.80;81.20;;;;;;5031065;28;20139;-65
2023/06/18 03:17:02;;;;;;;0.00;0.00;;;16.80;81.20;;;;;;5049398;28;20120;-66
2023/06/18 03:19:28;;;;;;;0.40;0.40;;;16.80;81.10;;;;;;5048644;28;20037;-66
2023/06/18 03:21:53;;;;;;;0.00;0.00;;;16.80;81.40;;;;;;5031385;28;20094;-67
2023/06/18 03:24:19;;;;;;;0.00;0.00;;;16.80;81.30;;;;;;5049220;28;20040;-66
2023/06/18 03:26:45;;;;;;;0.00;0.00;;;16.80;81.30;;;;;;5049185;28;20128;-67
2023/06/18 03:29:11;;;;;;;0.00;0.00;;;16.80;81.40;;;;;;5048965;28;20040;-66
2023/06/18 03:31:39;;;;;;;0.05;0.05;;;16.80;81.40;;;;;;5049007;28;20580;-66
2023/06/18 03:34:06;;;;;;;0.38;0.28;;;16.90;81.20;;;;;;5049125;28;20049;-66
2023/06/18 03:36:43;;;;;;;0.00;0.00;;;16.90;81.10;;;;;;5031391;28;20402;-66
2023/06/18 03:39:09;;;;;;;0.00;0.00;;;16.90;81.40;;;;;;5048756;28;20096;-66
2023/06/18 03:41:36;;;;;;;0.00;0.00;;;16.90;81.70;;;;;;5048975;28;20106;-67
2023/06/18 03:44:04;;;;;;;0.00;0.00;;;17.00;81.70;;;;;;5049413;28;20037;-66
2023/06/18 03:46:31;;;;;;;0.00;0.00;;;17.00;81.70;;;;;;5031441;28;20405;-66
2023/06/18 03:48:57;;;;;;;0.10;0.10;;;17.00;81.60;;;;;;5049750;28;20490;-66
2023/06/18 03:51:23;;;;;;;0.20;0.20;;;17.00;81.60;;;;;;5048665;28;20128;-66
2023/06/18 03:53:50;;;;;;;0.00;0.00;;;17.10;81.70;;;;;;5049065;28;20186;-66
2023/06/18 03:56:16;;;;;;;0.00;0.00;;;17.10;81.60;;;;;;5048971;28;20059;-66
2023/06/18 03:58:43;;;;;;;0.00;0.00;;;17.10;81.40;;;;;;5045817;28;20033;-67
2023/06/18 04:01:09;;;;;;;0.00;0.00;;;17.10;81.60;;;;;;5048220;28;20083;-66
2023/06/18 04:03:36;;;;;;;0.00;0.00;;;17.10;81.60;;;;;;5048850;28;20455;-66
2023/06/18 04:06:02;;;;;;;0.00;0.00;;;17.20;81.60;;;;;;5048237;28;20057;-66
2023/06/18 04:08:28;;;;;;;0.00;0.00;;;17.30;81.70;;;;;;5048752;28;20401;-67
2023/06/18 04:10:55;;;;;;;0.00;0.00;;;17.30;81.90;;;;;;5048784;28;20037;-67
2023/06/18 04:13:21;;;;;;;0.00;0.00;;;17.30;81.60;;;;;;5048769;28;20048;-66
2023/06/18 04:15:47;;;;;;;0.00;0.00;;;17.20;81.10;;;;;;5048714;28;20417;-66
2023/06/18 04:18:13;;;;;;;8.20;1.45;;;17.30;80.70;;;;;;5045670;28;20045;-66
2023/06/18 04:20:39;;;;;;;0.20;0.20;;;17.30;80.50;;;;;;5028667;28;20135;-66
2023/06/18 04:23:06;;;;;;;0.00;0.00;;;17.20;80.60;;;;;;5032605;28;20482;-66
2023/06/18 04:25:32;;;;;;;0.00;0.00;;;17.20;81.50;;;;;;5032646;28;20120;-66
2023/06/18 04:27:58;;;;;;;0.00;0.00;;;17.20;81.50;;;;;;5032190;28;20041;-66
2023/06/18 04:30:24;;;;;;;0.00;0.00;;;17.30;81.50;;;;;;5032543;28;20490;-67
2023/06/18 04:32:50;;;;;;;0.00;0.00;;;17.30;81.60;;;;;;5032617;28;20042;-66
2023/06/18 04:35:16;;;;;;;0.00;0.00;;;17.30;81.80;;;;;;5014891;28;20042;-66
2023/06/18 04:37:41;;;;;;;0.00;0.00;;;17.30;81.70;;;;;;5032366;28;20042;-67
2023/06/18 04:40:08;;;;;;;0.08;0.08;;;17.40;81.60;;;;;;5014636;28;20054;-66
2023/06/18 04:42:37;;;;;;;0.00;0.00;;;17.40;81.50;;;;;;5032307;28;20525;-66
2023/06/18 04:45:04;;;;;;;0.00;0.00;;;17.40;81.70;;;;;;5032230;28;20092;-67
2023/06/18 04:47:30;;;;;;;0.25;0.20;;;17.50;81.60;;;;;;5014563;28;20049;-66
2023/06/18 04:49:55;;;;;;;0.00;0.00;;;17.50;81.30;;;;;;5014160;28;20042;-67
2023/06/18 04:52:21;;;;;;;0.00;0.00;;;17.50;80.90;;;;;;5032193;28;20052;-66
2023/06/18 04:54:46;;;;;;;0.22;0.22;;;17.50;80.90;;;;;;5035170;28;20037;-66
2023/06/18 04:57:12;;;;;;;0.00;0.00;;;17.50;81.10;;;;;;5051729;28;20124;-66
2023/06/18 04:59:39;;;;;;;0.00;0.00;;;17.50;81.30;;;;;;5051888;28;20048;-66
2023/06/18 05:02:05;;;;;;;0.00;0.00;;;17.60;81.40;;;;;;5051716;28;20056;-66
2023/06/18 05:04:31;;;;;;;0.90;0.40;;;17.60;80.90;;;;;;5051886;28;20049;-67
2023/06/18 05:06:56;;;;;;;0.10;0.10;;;17.60;81.30;;;;;;5051688;28;20712;-66
2023/06/18 05:09:22;;;;;;;0.00;0.00;;;17.60;81.40;;;;;;5051724;28;20049;-66
2023/06/18 05:11:48;;;;;;;0.00;0.00;;;17.60;81.50;;;;;;5051530;28;20045;-66
2023/06/18 05:14:14;;;;;;;0.00;0.00;;;17.60;81.50;;;;;;5051938;28;20493;-67
2023/06/18 05:16:39;;;;;;;0.00;0.00;;;17.60;81.60;;;;;;5051114;28;20387;-66
2023/06/18 05:19:05;;;;;;;0.00;0.00;;;17.60;81.70;;;;;;5051598;28;20107;-67
2023/06/18 05:21:31;;;;;;;0.00;0.00;;;17.70;81.30;;;;;;5051375;28;20486;-66
2023/06/18 05:23:56;;;;;;;0.00;0.00;;;17.70;81.00;;;;;;5051231;28;20052;-66
2023/06/18 05:26:22;;;;;;;0.00;0.00;;;17.70;81.00;;;;;;5051011;28;20453;-66
2023/06/18 05:28:48;;;;;;;0.00;0.00;;;17.80;81.00;;;;;;5044197;28;20033;-66
2023/06/18 05:31:14;;;;;;;0.00;0.00;;;17.80;80.70;;;;;;5049394;28;20782;-66
2023/06/18 05:33:40;;;;;;;0.00;0.00;;;17.80;81.00;;;;;;5049554;28;20029;-66
2023/06/18 05:36:05;;;;;;;0.00;0.00;;;17.90;80.80;;;;;;5051249;28;20036;-66
2023/06/18 05:38:31;;;;;;;0.08;0.08;;;18.00;80.80;;;;;;5014786;28;20045;-66
2023/06/18 05:40:56;;;;;;;0.00;0.00;;;18.00;80.90;;;;;;5031116;28;20168;-66
2023/06/18 05:43:23;;;;;;;0.00;0.00;;;18.10;80.80;;;;;;5031076;28;20506;-67
2023/06/18 05:45:49;;;;;;;0.00;0.00;;;18.20;81.10;;;;;;5031187;28;20099;-66
2023/06/18 05:48:15;;;;;;;0.95;0.30;;;18.20;80.90;;;;;;5031752;28;20041;-66
2023/06/18 05:50:41;;;;;;;0.00;0.00;;;18.30;80.70;;;;;;5015449;28;20054;-66
2023/06/18 05:53:07;;;;;;;0.70;0.57;;;18.40;80.60;;;;;;5033388;28;20041;-67
2023/06/18 05:55:33;;;;;;;0.00;0.00;;;18.50;80.20;;;;;;5050857;28;20504;-66
2023/06/18 05:57:59;;;;;;;0.00;0.00;;;18.60;79.90;;;;;;5050220;28;20421;-66
2023/06/18 06:00:25;;;;;;;0.00;0.00;;;18.70;80.00;;;;;;5050741;28;20049;-66
2023/06/18 06:02:51;;;;;;;0.00;0.00;;;18.80;79.70;;;;;;5050593;28;20049;-66
2023/06/18 06:05:17;;;;;;;0.03;0.03;;;18.80;79.90;;;;;;5050580;28;20037;-66
2023/06/18 06:07:42;;;;;;;0.00;0.00;;;18.90;79.60;;;;;;5050558;28;20497;-66
2023/06/18 06:10:09;;;;;;;0.00;0.00;;;18.90;79.40;;;;;;5050264;28;20124;-66
2023/06/18 06:12:35;;;;;;;1.38;0.98;;;18.90;79.40;;;;;;5050468;28;20080;-66
2023/06/18 06:15:01;;;;;;;0.13;0.13;;;19.00;79.30;;;;;;5032622;28;20080;-66
2023/06/18 06:17:27;;;;;;;0.00;0.00;;;19.00;79.20;;;;;;5050367;28;20041;-66
2023/06/18 06:19:53;;;;;;;0.00;0.00;;;19.00;79.10;;;;;;5050364;28;20037;-66
2023/06/18 06:22:18;;;;;;;0.28;0.28;;;19.20;78.90;;;;;;5050217;28;20767;-68
2023/06/18 06:24:44;;;;;;;0.00;0.00;;;19.20;78.80;;;;;;5015902;28;20041;-67
2023/06/18 06:27:10;;;;;;;0.00;0.00;;;19.30;78.90;;;;;;5032555;28;20629;-66
2023/06/18 06:29:36;;;;;;;0.17;0.17;;;19.40;79.00;;;;;;5049841;28;20518;-66
2023/06/18 06:32:01;;;;;;;0.00;0.00;;;19.50;78.80;;;;;;5046253;28;20083;-66
2023/06/18 06:34:27;;;;;;;0.00;0.00;;;19.60;78.90;;;;;;5049355;28;20064;-67
2023/06/18 06:36:53;;;;;;;0.28;0.28;;;19.60;78.50;;;;;;5046044;28;20044;-67
2023/06/18 06:39:18;;;;;;;0.63;0.63;;;19.70;78.30;;;;;;5029626;28;20044;-66
2023/06/18 06:41:45;;;;;;;0.10;0.10;;;19.60;78.10;;;;;;5048116;28;20469;-67
2023/06/18 06:44:10;;;;;;;0.00;0.00;;;19.70;77.90;;;;;;5047344;28;20063;-67
2023/06/18 06:46:36;;;;;;;0.00;0.00;;;19.70;77.90;;;;;;5044207;28;20050;-67
2023/06/18 06:49:06;;;;;;;0.00;0.00;;;19.70;78.00;;;;;;5046495;28;20135;-67
2023/06/18 06:51:36;;;;;;;0.50;0.25;;;19.90;77.80;;;;;;5048554;28;20408;-67
2023/06/18 06:54:03;;;;;;;1.27;0.93;;;19.90;77.70;;;;;;5047717;28;20053;-67
2023/06/18 06:56:30;;;;;;;2.28;0.55;;;19.90;77.60;;;;;;5047685;28;20122;-67
2023/06/18 06:58:56;;;;;;;0.00;0.00;;;20.00;77.60;;;;;;5048306;28;20099;-68
2023/06/18 07:01:22;;;;;;;0.22;0.22;;;20.00;77.60;;;;;;5031013;28;20414;-66
2023/06/18 07:03:47;;;;;;;0.00;0.00;;;20.10;77.40;;;;;;5047284;28;20056;-67
2023/06/18 07:06:13;;;;;;;0.00;0.00;;;20.10;77.60;;;;;;5030370;28;20041;-67
2023/06/18 07:08:39;;;;;;;0.00;0.00;;;20.10;77.60;;;;;;5033697;28;20119;-67
2023/06/18 07:11:04;;;;;;;0.00;0.00;;;20.10;77.70;;;;;;5046686;28;20037;-67
2023/06/18 07:13:30;;;;;;;0.13;0.10;;;20.10;77.60;;;;;;5013527;28;20055;-67
2023/06/18 07:15:56;;;;;;;0.00;0.00;;;20.10;77.70;;;;;;5047008;28;20037;-67
2023/06/18 07:18:22;;;;;;;0.20;0.20;;;20.10;78.10;;;;;;5047824;28;20045;-67
2023/06/18 07:20:48;;;;;;;0.00;0.00;;;20.10;78.00;;;;;;5047928;28;20459;-66
2023/06/18 07:23:13;;;;;;;0.00;0.00;;;20.20;78.10;;;;;;5047766;28;20071;-68
2023/06/18 07:25:39;;;;;;;0.08;0.08;;;20.30;78.10;;;;;;5047689;28;20041;-71
2023/06/18 07:28:05;;;;;;;0.00;0.00;;;20.40;77.20;;;;;;5047618;28;20045;-68
2023/06/18 07:30:30;;;;;;;0.00;0.00;;;20.50;75.40;;;;;;5047826;28;20072;-68
2023/06/18 07:32:56;;;;;;;0.00;0.00;;;20.80;75.50;;;;;;5045758;28;20071;-67
2023/06/18 07:35:22;;;;;;;0.00;0.00;;;20.90;76.20;;;;;;5045028;28;20091;-67
2023/06/18 07:37:49;;;;;;;0.00;0.00;;;20.90;76.60;;;;;;5046818;28;20068;-67
2023/06/18 07:40:16;;;;;;;0.63;0.47;;;21.00;76.60;;;;;;5047108;28;20057;-68
2023/06/18 07:42:41;;;;;;;0.70;0.30;;;21.10;76.90;;;;;;5036170;28;20045;-67
2023/06/18 07:45:07;;;;;;;0.00;0.00;;;21.10;76.80;;;;;;5044547;28;20099;-68
2023/06/18 07:47:33;;;;;;;0.00;0.00;;;21.10;76.60;;;;;;5029689;28;20065;-67
2023/06/18 07:49:59;;;;;;;0.00;0.00;;;21.10;76.30;;;;;;5011242;28;20049;-68
2023/06/18 07:52:26;;;;;;;0.00;0.00;;;21.20;76.30;;;;;;5031206;28;20096;-68
2023/06/18 07:54:52;;;;;;;0.00;0.00;;;21.30;76.30;;;;;;5048560;28;20055;-67
2023/06/18 07:57:19;;;;;;;0.00;0.00;;;21.30;76.30;;;;;;5047146;28;20053;-68
2023/06/18 07:59:45;;;;;;;0.00;0.00;;;21.40;76.30;;;;;;5039408;28;20044;-67
2023/06/18 08:02:11;;;;;;;0.00;0.00;;;21.50;76.10;;;;;;5040686;28;20470;-67
2023/06/18 08:04:37;;;;;;;0.00;0.00;;;21.60;75.90;;;;;;5042736;28;20057;-67
2023/06/18 08:07:03;;;;;;;0.00;0.00;;;21.60;75.90;;;;;;5040789;28;20589;-68
2023/06/18 08:09:28;;;;;;;0.10;0.10;;;21.70;75.70;;;;;;5048649;28;20073;-69
2023/06/18 08:11:55;;;;;;;0.32;0.30;;;21.70;75.70;;;;;;5051331;28;20057;-69
2023/06/18 08:14:20;;;;;;;1.85;0.63;;;21.80;75.60;;;;;;5051632;28;20112;-69
2023/06/18 08:16:46;;;;;;;0.35;0.35;;;21.90;75.20;;;;;;5031700;28;20136;-67
2023/06/18 08:19:11;;;;;;;0.10;0.10;;;21.90;75.10;;;;;;5051484;28;20033;-68
2023/06/18 08:21:37;;;;;;;0.00;0.00;;;21.90;75.20;;;;;;5050768;28;20567;-68
2023/06/18 08:24:03;;;;;;;0.20;0.20;;;22.00;75.00;;;;;;5049665;28;20071;-68
2023/06/18 08:26:29;;;;;;;0.00;0.00;;;22.00;75.10;;;;;;5049501;28;20049;-68
2023/06/18 08:28:54;;;;;;;0.00;0.00;;;22.10;75.20;;;;;;5048898;28;20040;-68
2023/06/18 08:31:23;;;;;;;0.00;0.00;;;22.10;75.10;;;;;;5032328;28;20111;-67
2023/06/18 08:33:49;;;;;;;0.22;0.22;;;22.20;75.00;;;;;;5050833;28;20052;-67
2023/06/18 08:36:15;;;;;;;0.00;0.00;;;22.20;75.10;;;;;;5050975;28;20123;-67
2023/06/18 08:38:40;;;;;;;0.00;0.00;;;22.30;74.80;;;;;;5049906;28;20037;-67
2023/06/18 08:41:07;;;;;;;0.00;0.00;;;22.50;74.70;;;;;;5050479;28;20071;-67
2023/06/18 08:43:36;;;;;;;0.00;0.00;;;22.60;74.70;;;;;;5032880;28;20041;-67
2023/06/18 08:46:14;;;;;;;0.00;0.00;;;22.60;74.50;;;;;;5050408;28;20055;-67
2023/06/18 08:49:00;;;;;;;0.57;0.57;;;22.60;74.20;;;;;;5050609;28;20048;-67
2023/06/18 08:51:26;;;;;;;0.10;0.10;;;22.70;74.10;;;;;;5048700;28;20103;-67
2023/06/18 08:54:00;;;;;;;0.00;0.00;;;22.80;74.10;;;;;;5050523;28;20048;-68
2023/06/18 08:56:28;;;;;;;0.00;0.00;;;22.90;74.00;;;;;;5050571;28;20056;-67
2023/06/18 08:58:58;;;;;;;0.00;0.00;;;22.90;73.60;;;;;;5050917;28;20108;-67
2023/06/18 09:01:24;;;;;;;0.00;0.00;;;22.90;73.30;;;;;;5032398;28;20053;-68
2023/06/18 09:03:53;;;;;;;0.00;0.00;;;23.00;73.60;;;;;;5051411;28;20037;-67
2023/06/18 09:06:19;;;;;;;0.77;0.60;;;23.20;73.00;;;;;;5048202;28;20049;-67
2023/06/18 09:08:46;;;;;;;0.15;0.10;;;23.30;72.90;;;;;;5049352;28;20037;-68
2023/06/18 09:11:12;;;;;;;0.08;0.08;;;23.40;72.70;;;;;;5049499;28;20052;-67
2023/06/18 09:13:42;;;;;;;0.00;0.00;;;23.50;72.60;;;;;;5032763;28;20045;-68
2023/06/18 09:16:09;;;;;;;0.00;0.00;;;23.50;72.70;;;;;;5049924;28;20526;-68
2023/06/18 09:18:35;;;;;;;0.00;0.00;;;23.60;71.90;;;;;;5047560;28;20029;-68
2023/06/18 09:21:03;;;;;;;1.10;0.63;;;23.70;71.80;;;;;;5031682;28;20041;-68
2023/06/18 09:23:28;;;;;;;0.10;0.10;;;23.80;71.60;;;;;;5049645;28;20057;-68
2023/06/18 09:25:55;;;;;;;0.05;0.05;;;23.90;71.20;;;;;;5050067;28;20056;-68
2023/06/18 09:28:23;;;;;;;0.00;0.00;;;24.00;71.10;;;;;;5032241;28;20049;-68
2023/06/18 09:31:00;;;;;;;0.75;0.40;;;24.00;71.30;;;;;;5049272;28;20619;-66
2023/06/18 09:33:32;;;;;;;0.03;0.03;;;24.20;69.90;;;;;;5014349;28;20041;-67
2023/06/18 09:36:01;;;;;;;0.00;0.00;;;24.30;69.70;;;;;;5046712;28;20144;-67
2023/06/18 09:38:37;;;;;;;0.00;0.00;;;24.30;68.80;;;;;;5042169;28;20042;-67
2023/06/18 09:41:10;;;;;;;0.00;0.00;;;24.50;68.80;;;;;;5049898;28;20040;-66
2023/06/18 09:43:43;;;;;;;0.00;0.00;;;24.60;67.60;;;;;;5049267;28;20135;-66
2023/06/18 09:46:09;;;;;;;0.30;0.22;;;24.70;66.30;;;;;;5047830;28;20044;-66
2023/06/18 09:48:46;;;;;;;0.00;0.00;;;24.80;66.50;;;;;;5049671;28;20068;-66
2023/06/18 09:51:14;;;;;;;0.00;0.00;;;24.90;65.70;;;;;;5049892;28;20526;-66
2023/06/18 09:53:40;;;;;;;0.00;0.00;;;25.00;63.10;;;;;;5050026;28;20044;-66
2023/06/18 09:56:14;;;;;;;0.00;0.00;;;25.10;63.90;;;;;;5046406;28;20053;-66
2023/06/18 09:58:50;;;;;;;0.10;0.10;;;25.20;63.80;;;;;;5049209;28;20493;-66
2023/06/18 10:01:17;;;;;;;0.00;0.00;;;25.30;64.50;;;;;;5044908;28;20064;-67
2023/06/18 10:03:45;;;;;;;0.00;0.00;;;25.40;63.80;;;;;;5049283;28;20086;-66
2023/06/18 10:06:14;;;;;;;0.00;0.00;;;25.50;63.80;;;;;;5030988;28;20134;-66
2023/06/18 10:08:51;;;;;;;0.00;0.00;;;25.60;62.80;;;;;;5048905;28;20048;-66
2023/06/18 10:11:18;;;;;;;0.88;0.60;;;25.70;63.30;;;;;;5049202;28;20037;-67
2023/06/18 10:13:50;;;;;;;0.00;0.00;;;25.80;62.50;;;;;;5033855;28;20037;-67
2023/06/18 10:16:17;;;;;;;0.00;0.00;;;25.90;62.40;;;;;;5019106;28;20064;-66
2023/06/18 10:19:04;;;;;;;0.10;0.10;;;25.90;60.60;;;;;;5030508;28;20045;-66
2023/06/18 10:21:33;;;;;;;0.00;0.00;;;26.00;61.30;;;;;;5048998;28;20099;-67
2023/06/18 10:24:11;;;;;;;0.00;0.00;;;26.10;59.80;;;;;;5030886;28;20049;-67
2023/06/18 10:26:38;;;;;;;0.00;0.00;;;26.20;61.20;;;;;;5049278;28;20044;-67
2023/06/18 10:29:06;;;;;;;0.00;0.00;;;26.30;60.20;;;;;;5049699;28;20041;-68
2023/06/18 10:31:32;;;;;;;0.00;0.00;;;26.30;60.90;;;;;;5032210;28;20631;-67
2023/06/18 10:33:59;;;;;;;0.00;0.00;;;26.40;60.20;;;;;;5049174;28;20137;-67
2023/06/18 10:36:25;;;;;;;0.00;0.00;;;26.40;59.90;;;;;;5046509;28;20037;-66
2023/06/18 10:38:52;;;;;;;0.20;0.20;;;26.30;56.40;;;;;;5049836;28;20127;-66
2023/06/18 10:41:19;;;;;;;0.00;0.00;;;26.40;56.30;;;;;;5032556;28;20486;-66
2023/06/18 10:43:50;;;;;;;0.25;0.05;;;26.40;54.60;;;;;;5032278;28;20053;-65
2023/06/18 10:46:16;;;;;;;0.00;0.00;;;26.40;53.90;;;;;;5049837;28;20455;-66
2023/06/18 10:49:11;;;;;;;0.00;0.00;;;26.50;56.30;;;;;;5048987;28;20044;-65
2023/06/18 10:51:36;;;;;;;0.30;0.30;;;26.60;56.80;;;;;;5049040;28;20089;-65
2023/06/18 10:54:19;;;;;;;0.00;0.00;;;26.60;55.40;;;;;;5049321;28;20048;-66
2023/06/18 10:56:55;;;;;;;0.00;0.00;;;26.80;55.30;;;;;;5049538;28;20115;-65
2023/06/18 10:59:36;;;;;;;0.00;0.00;;;26.90;55.60;;;;;;5049557;28;20060;-65
2023/06/18 11:02:03;;;;;;;0.00;0.00;;;27.00;52.20;;;;;;5047556;28;20489;-66
2023/06/18 11:04:33;;;;;;;0.10;0.10;;;27.10;54.10;;;;;;5044998;28;20156;-65
2023/06/18 11:07:19;;;;;;;0.10;0.10;;;27.20;52.20;;;;;;5048598;28;20075;-65
2023/06/18 11:09:49;;;;;;;0.00;0.00;;;27.30;53.30;;;;;;5048444;28;20670;-65
2023/06/18 11:12:23;;;;;;;0.00;0.00;;;27.50;56.30;;;;;;5049298;28;20183;-66
2023/06/18 11:15:18;;;;;;;0.00;0.00;;;27.60;54.50;;;;;;5031851;28;20103;-66
2023/06/18 11:17:51;;;;;;;0.00;0.00;;;27.60;51.40;;;;;;5045537;28;20064;-66
2023/06/18 11:20:18;;;;;;;0.00;0.00;;;27.70;54.10;;;;;;5049763;28;20045;-66
2023/06/18 11:22:45;;;;;;;0.00;0.00;;;27.70;50.90;;;;;;5036659;28;20034;-66
2023/06/18 11:25:13;;;;;;;0.00;0.00;;;27.70;47.50;;;;;;5029283;28;20045;-66
2023/06/18 11:27:41;;;;;;;0.10;0.10;;;27.80;48.20;;;;;;5029571;28;20064;-66
2023/06/18 11:30:09;;;;;;;0.00;0.00;;;27.80;48.20;;;;;;5029130;28;20041;-65
2023/06/18 11:32:34;;;;;;;0.00;0.00;;;27.90;47.50;;;;;;5036273;28;20044;-66
2023/06/18 11:35:00;;;;;;;0.00;0.00;;;27.90;45.00;;;;;;5037681;28;20041;-66
2023/06/18 11:37:29;;;;;;;0.08;0.08;;;28.00;50.30;;;;;;5020272;28;20128;-67
2023/06/18 11:39:58;;;;;;;0.45;0.30;;;28.00;45.00;;;;;;5037945;28;20147;-66
2023/06/18 11:42:27;;;;;;;0.00;0.00;;;28.00;45.00;;;;;;5039926;28;20033;-66
2023/06/18 11:44:58;;;;;;;0.03;0.03;;;28.10;48.90;;;;;;5039073;28;20052;-66
2023/06/18 11:47:24;;;;;;;0.10;0.10;;;28.10;43.40;;;;;;5040521;28;20044;-66
2023/06/18 11:49:54;;;;;;;0.00;0.00;;;28.20;46.10;;;;;;5021623;28;20398;-66
2023/06/18 11:52:21;;;;;;;0.00;0.00;;;28.30;45.70;;;;;;5042526;28;20076;-66
2023/06/18 11:54:48;;;;;;;0.00;0.00;;;28.40;46.40;;;;;;5048766;28;20049;-66
2023/06/18 11:57:16;;;;;;;0.10;0.10;;;28.50;46.00;;;;;;5048926;28;20045;-66
2023/06/18 11:59:43;;;;;;;0.00;0.00;;;28.60;45.20;;;;;;5048706;28;20494;-66
2023/06/18 12:02:16;;;;;;;0.00;0.00;;;28.70;45.90;;;;;;5048928;28;20049;-66
2023/06/18 12:04:43;;;;;;;0.00;0.00;;;28.70;44.90;;;;;;5048670;28;20074;-66
2023/06/18 12:07:17;;;;;;;0.10;0.10;;;28.70;44.80;;;;;;5048969;28;20044;-67
2023/06/18 12:09:45;;;;;;;0.00;0.00;;;28.70;42.60;;;;;;5048782;28;20041;-66
2023/06/18 12:12:58;;;;;;;0.00;0.00;;;28.70;47.40;;;;;;5048968;28;20049;-66
2023/06/18 12:15:41;;;;;;;0.00;0.00;;;28.50;44.00;;;;;;5016954;28;20486;-66
2023/06/18 12:18:22;;;;;;;0.00;0.00;;;28.50;42.90;;;;;;5048553;28;20048;-66
2023/06/18 12:20:48;;;;;;;0.00;0.00;;;28.50;46.40;;;;;;5048591;28;20709;-65
2023/06/18 12:23:14;;;;;;;0.00;0.00;;;28.50;45.40;;;;;;5048376;28;20124;-66
2023/06/18 12:25:40;;;;;;;0.00;0.00;;;28.40;46.10;;;;;;5047474;28;20055;-65
2023/06/18 12:28:06;;;;;;;0.15;0.15;;;28.40;48.40;;;;;;5047238;28;20045;-67
2023/06/18 12:30:37;;;;;;;0.00;0.00;;;28.40;45.40;;;;;;5030839;28;20502;-67
2023/06/18 12:33:05;;;;;;;4.07;0.47;;;28.40;45.70;;;;;;5044861;28;20049;-67
2023/06/18 12:35:31;;;;;;;0.08;0.08;;;28.40;48.40;;;;;;5029697;28;20041;-65
2023/06/18 12:38:15;;;;;;;0.20;0.20;;;28.40;45.10;;;;;;5048373;28;20037;-67
2023/06/18 12:41:00;;;;;;;0.22;0.20;;;28.50;45.20;;;;;;5047455;28;20045;-65
2023/06/18 12:43:26;;;;;;;0.00;0.00;;;28.50;44.10;;;;;;5035855;28;20807;-65
2023/06/18 12:45:52;;;;;;;0.15;0.15;;;28.50;44.50;;;;;;5051376;28;20137;-64
2023/06/18 12:48:26;;;;;;;0.20;0.20;;;28.70;47.60;;;;;;5051740;28;20132;-66
2023/06/18 12:50:54;;;;;;;0.03;0.03;;;29.00;47.50;;;;;;5050962;28;20053;-66